createdAt,value
2018-12-12T00:00:56.606Z,19.00
2018-12-12T00:01:56.591Z,19.01
2018-12-12T00:02:56.577Z,18.96
2018-12-12T00:03:56.689Z,18.96
2018-12-12T00:04:57.348Z,18.96
2018-12-12T00:05:56.549Z,18.88
2018-12-12T00:06:56.537Z,18.96
2018-12-12T00:07:56.524Z,18.82
2018-12-12T00:08:56.512Z,18.85
2018-12-12T00:09:56.911Z,18.92
2018-12-12T00:10:56.493Z,18.86
2018-12-12T00:11:56.480Z,18.86
2018-12-12T00:12:56.468Z,18.89
2018-12-12T00:13:56.461Z,18.92
2018-12-12T00:14:56.456Z,18.91
2018-12-12T00:15:56.545Z,18.91
2018-12-12T00:16:56.437Z,18.88
2018-12-12T00:17:56.419Z,18.89
2018-12-12T00:18:56.406Z,18.83
2018-12-12T00:19:56.403Z,18.81
2018-12-12T00:20:56.386Z,18.81
2018-12-12T00:21:56.482Z,18.81
2018-12-12T00:22:56.367Z,18.83
2018-12-12T00:23:56.354Z,18.88
2018-12-12T00:24:56.341Z,18.86
2018-12-12T00:25:56.332Z,18.88
2018-12-12T00:26:57.315Z,18.81
2018-12-12T00:27:56.499Z,18.85
2018-12-12T00:28:56.293Z,18.79
2018-12-12T00:29:56.285Z,18.83
2018-12-12T00:30:56.278Z,18.83
2018-12-12T00:31:56.803Z,18.82
2018-12-12T00:32:56.254Z,18.81
2018-12-12T00:33:56.354Z,18.82
2018-12-12T00:34:56.267Z,18.86
2018-12-12T00:35:56.224Z,18.78
2018-12-12T00:36:56.210Z,18.81
2018-12-12T00:37:56.209Z,18.81
2018-12-12T00:38:56.188Z,18.83
2018-12-12T00:39:56.279Z,18.83
2018-12-12T00:40:56.177Z,18.86
2018-12-12T00:41:56.165Z,18.82
2018-12-12T00:42:56.155Z,18.86
2018-12-12T00:43:56.150Z,18.81
2018-12-12T00:44:56.130Z,18.83
2018-12-12T00:45:56.298Z,18.79
2018-12-12T00:46:56.113Z,18.81
2018-12-12T00:47:56.101Z,18.85
2018-12-12T00:48:56.091Z,18.79
2018-12-12T00:49:56.078Z,18.76
2018-12-12T00:50:56.069Z,18.86
2018-12-12T00:51:56.157Z,18.83
2018-12-12T00:52:56.046Z,18.86
2018-12-12T00:53:56.040Z,18.82
2018-12-12T00:54:56.026Z,18.91
2018-12-12T00:55:56.006Z,18.79
2018-12-12T00:56:56.004Z,18.73
2018-12-12T00:57:56.101Z,18.81
2018-12-12T00:58:55.985Z,18.76
2018-12-12T00:59:55.971Z,18.81
2018-12-12T01:00:55.967Z,18.78
2018-12-12T01:01:55.962Z,18.78
2018-12-12T01:02:55.942Z,18.85
2018-12-12T01:03:56.104Z,18.86
2018-12-12T01:04:55.914Z,18.81
2018-12-12T01:05:55.909Z,18.88
2018-12-12T01:06:55.900Z,18.85
2018-12-12T01:07:55.887Z,18.76
2018-12-12T01:08:55.873Z,18.81
2018-12-12T01:09:55.969Z,18.82
2018-12-12T01:10:55.846Z,18.78
2018-12-12T01:11:55.839Z,18.83
2018-12-12T01:12:55.825Z,18.82
2018-12-12T01:13:55.815Z,18.83
2018-12-12T01:14:55.808Z,18.86
2018-12-12T01:15:55.898Z,18.78
2018-12-12T01:16:55.795Z,18.82
2018-12-12T01:17:55.783Z,18.83
2018-12-12T01:18:55.786Z,18.74
2018-12-12T01:19:55.753Z,18.81
2018-12-12T01:20:55.738Z,18.81
2018-12-12T01:21:55.877Z,18.76
2018-12-12T01:22:55.720Z,18.81
2018-12-12T01:23:55.712Z,18.79
2018-12-12T01:24:55.706Z,18.79
2018-12-12T01:25:55.692Z,18.79
2018-12-12T01:26:55.674Z,18.83
2018-12-12T01:27:55.761Z,18.79
2018-12-12T01:28:55.651Z,18.74
2018-12-12T01:29:55.639Z,18.82
2018-12-12T01:30:55.625Z,18.71
2018-12-12T01:31:55.622Z,18.81
2018-12-12T01:32:55.597Z,18.78
2018-12-12T01:33:55.697Z,18.73
2018-12-12T01:34:55.587Z,18.76
2018-12-12T01:35:55.568Z,18.78
2018-12-12T01:36:55.553Z,18.71
2018-12-12T01:37:55.550Z,18.73
2018-12-12T01:38:55.545Z,18.74
2018-12-12T01:39:55.728Z,18.83
2018-12-12T01:40:55.519Z,18.76
2018-12-12T01:41:55.505Z,18.76
2018-12-12T01:42:55.493Z,18.76
2018-12-12T01:43:55.483Z,18.85
2018-12-12T01:44:55.468Z,18.74
2018-12-12T01:45:55.565Z,18.78
2018-12-12T01:46:55.449Z,18.76
2018-12-12T01:47:55.443Z,18.71
2018-12-12T01:48:55.427Z,18.82
2018-12-12T01:49:55.418Z,18.70
2018-12-12T01:50:55.407Z,18.78
2018-12-12T01:51:55.562Z,18.79
2018-12-12T01:52:55.380Z,18.78
2018-12-12T01:53:55.377Z,18.78
2018-12-12T01:54:55.374Z,18.78
2018-12-12T01:55:55.352Z,18.82
2018-12-12T01:56:55.342Z,18.71
2018-12-12T01:57:55.505Z,18.64
2018-12-12T01:58:55.319Z,18.70
2018-12-12T01:59:55.312Z,18.74
2018-12-12T02:00:55.295Z,18.68
2018-12-12T02:01:55.292Z,18.64
2018-12-12T02:02:55.275Z,18.70
2018-12-12T02:03:55.424Z,18.66
2018-12-12T02:04:55.252Z,18.63
2018-12-12T02:05:55.256Z,18.70
2018-12-12T02:06:55.259Z,18.71
2018-12-12T02:07:55.220Z,18.76
2018-12-12T02:08:55.206Z,18.73
2018-12-12T02:09:55.295Z,18.70
2018-12-12T02:10:55.188Z,18.60
2018-12-12T02:11:55.175Z,18.63
2018-12-12T02:12:55.167Z,18.64
2018-12-12T02:13:55.155Z,18.67
2018-12-12T02:14:55.141Z,18.67
2018-12-12T02:15:55.416Z,18.60
2018-12-12T02:16:55.121Z,18.63
2018-12-12T02:17:55.114Z,18.60
2018-12-12T02:18:55.109Z,18.63
2018-12-12T02:19:55.089Z,18.58
2018-12-12T02:20:55.078Z,18.55
2018-12-12T02:21:55.299Z,18.61
2018-12-12T02:22:55.057Z,18.60
2018-12-12T02:23:55.045Z,18.60
2018-12-12T02:24:55.034Z,18.60
2018-12-12T02:25:55.025Z,18.57
2018-12-12T02:26:55.017Z,18.55
2018-12-12T02:27:55.107Z,18.55
2018-12-12T02:28:54.996Z,18.55
2018-12-12T02:29:54.979Z,18.53
2018-12-12T02:30:54.989Z,18.52
2018-12-12T02:31:54.961Z,18.55
2018-12-12T02:32:54.945Z,18.49
2018-12-12T02:33:55.136Z,18.52
2018-12-12T02:34:54.925Z,18.45
2018-12-12T02:35:54.917Z,18.52
2018-12-12T02:36:54.899Z,18.51
2018-12-12T02:37:54.889Z,18.51
2018-12-12T02:38:54.881Z,18.51
2018-12-12T02:39:55.160Z,18.46
2018-12-12T02:40:54.859Z,18.48
2018-12-12T02:41:54.851Z,18.48
2018-12-12T02:42:54.838Z,18.41
2018-12-12T02:43:54.823Z,18.42
2018-12-12T02:44:54.815Z,18.45
2018-12-12T02:45:55.095Z,18.45
2018-12-12T02:46:54.792Z,18.39
2018-12-12T02:47:54.792Z,18.42
2018-12-12T02:48:54.774Z,18.42
2018-12-12T02:49:54.761Z,18.37
2018-12-12T02:50:54.750Z,18.45
2018-12-12T02:51:54.841Z,18.41
2018-12-12T02:52:54.724Z,18.45
2018-12-12T02:53:54.721Z,18.39
2018-12-12T02:54:55.308Z,18.37
2018-12-12T02:55:54.706Z,18.41
2018-12-12T02:56:54.692Z,18.51
2018-12-12T02:57:54.769Z,18.37
2018-12-12T02:58:54.674Z,18.41
2018-12-12T02:59:54.655Z,18.28
2018-12-12T03:00:54.645Z,18.39
2018-12-12T03:01:54.636Z,18.34
2018-12-12T03:02:54.620Z,18.26
2018-12-12T03:03:54.885Z,18.37
2018-12-12T03:04:54.597Z,18.43
2018-12-12T03:05:54.585Z,18.33
2018-12-12T03:06:54.588Z,18.31
2018-12-12T03:07:54.564Z,18.45
2018-12-12T03:08:54.568Z,18.43
2018-12-12T03:09:54.668Z,18.28
2018-12-12T03:10:54.527Z,18.34
2018-12-12T03:11:54.521Z,18.34
2018-12-12T03:12:54.530Z,18.30
2018-12-12T03:13:54.512Z,18.30
2018-12-12T03:14:54.496Z,18.31
2018-12-12T03:15:54.592Z,18.34
2018-12-12T03:16:54.473Z,18.41
2018-12-12T03:17:54.456Z,18.28
2018-12-12T03:18:54.454Z,18.37
2018-12-12T03:19:54.457Z,18.36
2018-12-12T03:20:54.431Z,18.42
2018-12-12T03:21:54.703Z,18.42
2018-12-12T03:22:54.403Z,18.34
2018-12-12T03:23:54.396Z,18.31
2018-12-12T03:24:54.376Z,18.34
2018-12-12T03:25:54.374Z,18.26
2018-12-12T03:26:54.363Z,18.26
2018-12-12T03:27:54.479Z,18.36
2018-12-12T03:28:54.363Z,18.24
2018-12-12T03:29:54.328Z,18.27
2018-12-12T03:30:54.324Z,18.26
2018-12-12T03:31:54.343Z,18.23
2018-12-12T03:32:54.307Z,18.15
2018-12-12T03:33:54.389Z,18.18
2018-12-12T03:34:54.329Z,18.16
2018-12-12T03:35:54.288Z,18.11
2018-12-12T03:36:54.250Z,18.12
2018-12-12T03:37:54.236Z,18.16
2018-12-12T03:38:54.230Z,18.13
2018-12-12T03:39:54.311Z,18.16
2018-12-12T03:40:54.205Z,18.16
2018-12-12T03:41:54.189Z,18.16
2018-12-12T03:42:54.185Z,18.08
2018-12-12T03:43:54.177Z,18.16
2018-12-12T03:44:54.163Z,18.16
2018-12-12T03:45:54.498Z,18.15
2018-12-12T03:46:54.141Z,18.09
2018-12-12T03:47:54.126Z,18.06
2018-12-12T03:48:54.121Z,18.00
2018-12-12T03:49:54.113Z,17.98
2018-12-12T03:50:54.092Z,18.02
2018-12-12T03:51:54.315Z,18.02
2018-12-12T03:52:54.073Z,18.00
2018-12-12T03:53:54.062Z,18.05
2018-12-12T03:54:54.053Z,17.93
2018-12-12T03:55:54.043Z,18.11
2018-12-12T03:56:54.023Z,18.11
2018-12-12T03:57:54.123Z,18.09
2018-12-12T03:58:54.002Z,18.05
2018-12-12T03:59:53.995Z,18.02
2018-12-12T04:00:53.981Z,18.02
2018-12-12T04:01:53.975Z,18.00
2018-12-12T04:02:54.820Z,18.09
2018-12-12T04:03:54.080Z,18.02
2018-12-12T04:04:53.943Z,18.06
2018-12-12T04:05:53.969Z,18.00
2018-12-12T04:06:53.942Z,18.03
2018-12-12T04:07:53.935Z,18.02
2018-12-12T04:08:53.920Z,17.93
2018-12-12T04:09:54.374Z,17.94
2018-12-12T04:10:53.877Z,17.91
2018-12-12T04:11:53.894Z,17.91
2018-12-12T04:12:53.889Z,17.91
2018-12-12T04:13:53.845Z,17.94
2018-12-12T04:14:53.869Z,17.91
2018-12-12T04:15:53.939Z,17.93
2018-12-12T04:16:53.806Z,17.91
2018-12-12T04:17:53.796Z,17.87
2018-12-12T04:18:53.782Z,17.88
2018-12-12T04:19:53.770Z,17.90
2018-12-12T04:20:53.761Z,17.88
2018-12-12T04:21:53.850Z,17.86
2018-12-12T04:22:53.738Z,17.84
2018-12-12T04:23:53.725Z,17.88
2018-12-12T04:24:53.716Z,17.88
2018-12-12T04:25:53.708Z,17.84
2018-12-12T04:26:53.694Z,17.91
2018-12-12T04:27:53.948Z,17.87
2018-12-12T04:28:53.674Z,17.88
2018-12-12T04:29:53.667Z,17.76
2018-12-12T04:30:53.653Z,17.80
2018-12-12T04:31:53.642Z,17.79
2018-12-12T04:32:53.631Z,17.79
2018-12-12T04:33:53.964Z,17.75
2018-12-12T04:34:53.617Z,17.75
2018-12-12T04:35:53.603Z,17.75
2018-12-12T04:36:53.587Z,17.72
2018-12-12T04:37:53.574Z,17.73
2018-12-12T04:38:53.565Z,17.76
2018-12-12T04:39:53.655Z,17.78
2018-12-12T04:40:53.541Z,17.76
2018-12-12T04:41:53.533Z,17.72
2018-12-12T04:42:53.518Z,17.73
2018-12-12T04:43:53.505Z,17.76
2018-12-12T04:44:53.493Z,17.72
2018-12-12T04:45:53.592Z,17.78
2018-12-12T04:46:53.476Z,17.75
2018-12-12T04:47:54.307Z,17.78
2018-12-12T04:48:53.454Z,17.79
2018-12-12T04:49:53.443Z,17.73
2018-12-12T04:50:53.465Z,17.65
2018-12-12T04:51:54.311Z,17.73
2018-12-12T04:52:53.414Z,17.73
2018-12-12T04:53:53.396Z,17.66
2018-12-12T04:54:53.389Z,17.75
2018-12-12T04:55:53.379Z,17.65
2018-12-12T04:56:53.367Z,17.75
2018-12-12T04:57:53.453Z,17.68
2018-12-12T04:58:53.344Z,17.75
2018-12-12T04:59:53.330Z,17.75
2018-12-12T05:00:53.323Z,17.71
2018-12-12T05:01:53.307Z,17.68
2018-12-12T05:02:53.296Z,17.69
2018-12-12T05:03:53.405Z,17.59
2018-12-12T05:04:53.278Z,17.73
2018-12-12T05:05:53.275Z,17.75
2018-12-12T05:06:53.266Z,17.69
2018-12-12T05:07:53.241Z,17.69
2018-12-12T05:08:53.231Z,17.75
2018-12-12T05:09:53.320Z,17.66
2018-12-12T05:10:53.210Z,17.71
2018-12-12T05:11:53.203Z,17.75
2018-12-12T05:12:53.194Z,17.71
2018-12-12T05:13:53.183Z,17.73
2018-12-12T05:14:53.171Z,17.78
2018-12-12T05:15:53.255Z,17.76
2018-12-12T05:16:53.146Z,17.78
2018-12-12T05:17:53.137Z,17.72
2018-12-12T05:18:53.128Z,17.76
2018-12-12T05:19:53.117Z,17.72
2018-12-12T05:20:53.105Z,17.78
2018-12-12T05:21:53.359Z,17.75
2018-12-12T05:22:53.078Z,17.72
2018-12-12T05:23:53.071Z,17.69
2018-12-12T05:24:53.065Z,17.76
2018-12-12T05:25:53.048Z,17.86
2018-12-12T05:26:53.037Z,17.82
2018-12-12T05:27:53.207Z,17.80
2018-12-12T05:28:53.804Z,17.80
2018-12-12T05:29:53.004Z,17.84
2018-12-12T05:30:52.997Z,17.84
2018-12-12T05:31:52.985Z,17.84
2018-12-12T05:32:52.974Z,17.84
2018-12-12T05:33:53.068Z,17.90
2018-12-12T05:34:52.950Z,17.93
2018-12-12T05:35:52.936Z,17.94
2018-12-12T05:36:52.932Z,17.95
2018-12-12T05:37:52.915Z,17.88
2018-12-12T05:38:52.911Z,17.97
2018-12-12T05:39:53.223Z,18.06
2018-12-12T05:40:52.890Z,18.00
2018-12-12T05:41:52.879Z,18.03
2018-12-12T05:42:52.862Z,18.03
2018-12-12T05:43:57.619Z,17.95
2018-12-12T05:44:52.841Z,18.05
2018-12-12T05:45:52.951Z,18.02
2018-12-12T05:46:52.818Z,18.12
2018-12-12T05:47:52.809Z,17.94
2018-12-12T05:48:52.795Z,17.97
2018-12-12T05:49:52.785Z,17.97
2018-12-12T05:50:52.773Z,18.00
2018-12-12T05:51:53.056Z,18.05
2018-12-12T05:52:52.752Z,18.11
2018-12-12T05:53:52.746Z,18.18
2018-12-12T05:54:53.316Z,18.11
2018-12-12T05:55:52.720Z,18.24
2018-12-12T05:56:52.712Z,18.15
2018-12-12T05:57:52.879Z,18.16
2018-12-12T05:58:52.687Z,18.18
2018-12-12T05:59:52.675Z,18.19
2018-12-12T06:00:52.665Z,18.26
2018-12-12T06:01:52.656Z,18.28
2018-12-12T06:02:52.640Z,18.19
2018-12-12T06:03:52.726Z,18.33
2018-12-12T06:04:52.623Z,18.39
2018-12-12T06:05:52.607Z,18.42
2018-12-12T06:06:52.599Z,18.42
2018-12-12T06:07:52.588Z,18.26
2018-12-12T06:08:52.579Z,18.30
2018-12-12T06:09:52.673Z,18.37
2018-12-12T06:10:52.565Z,18.41
2018-12-12T06:11:52.545Z,18.31
2018-12-12T06:12:52.534Z,18.37
2018-12-12T06:13:52.522Z,18.41
2018-12-12T06:14:52.512Z,18.41
2018-12-12T06:15:52.699Z,18.46
2018-12-12T06:16:52.492Z,18.41
2018-12-12T06:17:52.484Z,18.46
2018-12-12T06:18:52.468Z,18.49
2018-12-12T06:19:52.457Z,18.55
2018-12-12T06:20:52.448Z,18.53
2018-12-12T06:21:52.614Z,18.51
2018-12-12T06:22:52.424Z,18.55
2018-12-12T06:23:52.413Z,18.55
2018-12-12T06:24:52.405Z,18.66
2018-12-12T06:25:52.390Z,18.63
2018-12-12T06:26:52.382Z,18.67
2018-12-12T06:27:52.475Z,18.70
2018-12-12T06:28:52.358Z,18.68
2018-12-12T06:29:52.346Z,18.67
2018-12-12T06:30:52.338Z,18.78
2018-12-12T06:31:52.326Z,18.74
2018-12-12T06:32:52.315Z,18.89
2018-12-12T06:33:52.435Z,18.81
2018-12-12T06:34:52.292Z,18.79
2018-12-12T06:35:52.282Z,18.83
2018-12-12T06:36:52.267Z,18.83
2018-12-12T06:37:52.261Z,18.89
2018-12-12T06:38:52.247Z,18.94
2018-12-12T06:39:52.418Z,18.92
2018-12-12T06:40:52.228Z,18.97
2018-12-12T06:41:52.216Z,18.96
2018-12-12T06:42:52.204Z,19.01
2018-12-12T06:43:52.193Z,18.92
2018-12-12T06:44:52.181Z,19.04
2018-12-12T06:45:52.274Z,19.11
2018-12-12T06:46:52.156Z,19.11
2018-12-12T06:47:52.147Z,19.20
2018-12-12T06:48:52.141Z,19.17
2018-12-12T06:49:52.125Z,19.19
2018-12-12T06:50:52.118Z,19.22
2018-12-12T06:51:52.274Z,19.17
2018-12-12T06:52:52.096Z,19.27
2018-12-12T06:53:52.083Z,19.27
2018-12-12T06:54:52.074Z,19.26
2018-12-12T06:55:52.065Z,19.30
2018-12-12T06:56:52.046Z,19.35
2018-12-12T06:57:52.211Z,19.38
2018-12-12T06:58:52.028Z,19.38
2018-12-12T06:59:52.017Z,19.39
2018-12-12T07:00:52.018Z,19.45
2018-12-12T07:01:51.996Z,19.48
2018-12-12T07:02:51.985Z,19.47
2018-12-12T07:03:52.075Z,19.52
2018-12-12T07:04:51.957Z,19.52
2018-12-12T07:05:51.950Z,19.67
2018-12-12T07:06:51.939Z,19.64
2018-12-12T07:07:51.927Z,19.71
2018-12-12T07:08:52.067Z,19.77
2018-12-12T07:09:51.997Z,19.71
2018-12-12T07:10:51.893Z,19.84
2018-12-12T07:11:51.895Z,19.84
2018-12-12T07:12:51.879Z,19.85
2018-12-12T07:13:51.865Z,19.85
2018-12-12T07:14:51.850Z,19.84
2018-12-12T07:15:52.009Z,19.85
2018-12-12T07:16:51.828Z,19.77
2018-12-12T07:17:51.818Z,19.89
2018-12-12T07:18:51.803Z,19.89
2018-12-12T07:19:51.796Z,19.97
2018-12-12T07:20:52.303Z,20.03
2018-12-12T07:21:51.972Z,19.99
2018-12-12T07:22:51.776Z,20.10
2018-12-12T07:23:51.752Z,20.04
2018-12-12T07:24:51.748Z,20.07
2018-12-12T07:25:51.732Z,20.07
2018-12-12T07:26:51.722Z,20.00
2018-12-12T07:27:51.818Z,19.93
2018-12-12T07:28:51.699Z,19.96
2018-12-12T07:29:51.689Z,19.93
2018-12-12T07:30:51.680Z,19.97
2018-12-12T07:31:51.706Z,20.07
2018-12-12T07:32:51.654Z,20.12
2018-12-12T07:33:51.786Z,20.14
2018-12-12T07:34:51.632Z,20.19
2018-12-12T07:35:51.624Z,20.17
2018-12-12T07:36:51.611Z,20.15
2018-12-12T07:37:51.601Z,20.26
2018-12-12T07:38:51.590Z,20.27
2018-12-12T07:39:51.851Z,20.37
2018-12-12T07:40:51.570Z,20.48
2018-12-12T07:41:51.563Z,20.46
2018-12-12T07:42:51.551Z,20.52
2018-12-12T07:43:51.536Z,20.50
2018-12-12T07:44:51.526Z,20.50
2018-12-12T07:45:51.797Z,20.52
2018-12-12T07:46:51.503Z,20.55
2018-12-12T07:47:51.493Z,20.59
2018-12-12T07:48:51.478Z,20.66
2018-12-12T07:49:51.471Z,20.58
2018-12-12T07:50:51.462Z,20.68
2018-12-12T07:51:51.578Z,20.71
2018-12-12T07:52:51.437Z,20.80
2018-12-12T07:53:51.428Z,20.82
2018-12-12T07:54:51.420Z,20.80
2018-12-12T07:55:51.405Z,20.85
2018-12-12T07:56:51.401Z,20.85
2018-12-12T07:57:51.568Z,20.95
2018-12-12T07:58:51.372Z,20.96
2018-12-12T07:59:51.361Z,21.07
2018-12-12T08:00:51.351Z,21.00
2018-12-12T08:01:51.338Z,21.00
2018-12-12T08:02:51.327Z,21.22
2018-12-12T08:03:51.631Z,21.15
2018-12-12T08:04:51.306Z,21.22
2018-12-12T08:05:51.298Z,21.25
2018-12-12T08:06:51.286Z,21.30
2018-12-12T08:07:51.276Z,21.38
2018-12-12T08:08:51.264Z,21.45
2018-12-12T08:09:51.359Z,21.43
2018-12-12T08:10:51.240Z,21.54
2018-12-12T08:11:51.230Z,21.59
2018-12-12T08:12:51.230Z,21.65
2018-12-12T08:13:51.208Z,21.75
2018-12-12T08:14:51.202Z,21.74
2018-12-12T08:15:51.437Z,21.85
2018-12-12T08:16:51.177Z,21.89
2018-12-12T08:17:51.166Z,21.96
2018-12-12T08:18:51.157Z,22.06
2018-12-12T08:19:51.166Z,22.14
2018-12-12T08:20:51.136Z,22.14
2018-12-12T08:21:51.228Z,22.21
2018-12-12T08:22:51.111Z,22.22
2018-12-12T08:23:51.099Z,22.22
2018-12-12T08:24:51.091Z,22.34
2018-12-12T08:25:51.078Z,22.43
2018-12-12T08:26:51.807Z,22.52
2018-12-12T08:27:51.155Z,22.58
2018-12-12T08:28:51.046Z,22.58
2018-12-12T08:29:51.036Z,22.67
2018-12-12T08:30:51.024Z,22.71
2018-12-12T08:31:51.018Z,22.65
2018-12-12T08:32:51.003Z,22.67
2018-12-12T08:33:51.228Z,22.76
2018-12-12T08:34:50.980Z,22.77
2018-12-12T08:35:50.972Z,22.80
2018-12-12T08:36:50.955Z,22.83
2018-12-12T08:37:51.010Z,22.89
2018-12-12T08:38:50.934Z,22.92
2018-12-12T08:39:51.056Z,22.80
2018-12-12T08:40:50.911Z,22.80
2018-12-12T08:41:50.905Z,22.78
2018-12-12T08:42:50.889Z,22.84
2018-12-12T08:43:50.881Z,22.83
2018-12-12T08:44:50.871Z,22.77
2018-12-12T08:45:50.963Z,22.92
2018-12-12T08:46:50.853Z,22.78
2018-12-12T08:47:50.835Z,22.67
2018-12-12T08:48:50.828Z,22.59
2018-12-12T08:49:50.818Z,22.67
2018-12-12T08:50:50.807Z,22.61
2018-12-12T08:51:50.992Z,22.59
2018-12-12T08:52:50.786Z,22.47
2018-12-12T08:53:50.770Z,22.46
2018-12-12T08:54:50.759Z,22.62
2018-12-12T08:55:50.748Z,22.56
2018-12-12T08:56:50.737Z,22.65
2018-12-12T08:57:50.836Z,22.63
2018-12-12T08:58:50.720Z,22.59
2018-12-12T08:59:50.706Z,22.53
2018-12-12T09:00:50.694Z,22.46
2018-12-12T09:01:50.686Z,22.46
2018-12-12T09:02:50.690Z,22.43
2018-12-12T09:03:50.774Z,22.40
2018-12-12T09:04:50.650Z,22.37
2018-12-12T09:05:50.646Z,22.36
2018-12-12T09:06:50.628Z,22.28
2018-12-12T09:07:50.621Z,22.26
2018-12-12T09:08:50.620Z,22.23
2018-12-12T09:09:50.808Z,22.26
2018-12-12T09:10:50.586Z,22.25
2018-12-12T09:11:50.575Z,22.40
2018-12-12T09:12:50.566Z,22.56
2018-12-12T09:13:50.558Z,22.43
2018-12-12T09:14:50.546Z,22.37
2018-12-12T09:15:50.649Z,22.38
2018-12-12T09:16:50.530Z,22.34
2018-12-12T09:17:50.513Z,22.40
2018-12-12T09:18:50.502Z,22.55
2018-12-12T09:19:50.495Z,22.49
2018-12-12T09:20:50.478Z,22.38
2018-12-12T09:21:50.603Z,22.33
2018-12-12T09:22:50.458Z,22.22
2018-12-12T09:23:50.444Z,22.19
2018-12-12T09:24:50.438Z,22.12
2018-12-12T09:25:50.425Z,22.08
2018-12-12T09:26:50.412Z,22.14
2018-12-12T09:27:50.608Z,22.19
2018-12-12T09:28:50.392Z,22.12
2018-12-12T09:29:50.381Z,22.03
2018-12-12T09:30:50.371Z,22.03
2018-12-12T09:31:50.364Z,22.08
2018-12-12T09:32:50.350Z,22.03
2018-12-12T09:33:50.444Z,22.14
2018-12-12T09:34:50.321Z,22.04
2018-12-12T09:35:50.320Z,22.01
2018-12-12T09:36:50.306Z,21.99
2018-12-12T09:37:50.301Z,22.10
2018-12-12T09:38:50.278Z,22.10
2018-12-12T09:39:50.367Z,22.18
2018-12-12T09:40:50.263Z,22.26
2018-12-12T09:41:50.251Z,22.15
2018-12-12T09:42:50.242Z,22.28
2018-12-12T09:43:50.224Z,22.21
2018-12-12T09:44:50.217Z,22.21
2018-12-12T09:45:50.389Z,22.21
2018-12-12T09:46:50.197Z,22.21
2018-12-12T09:47:50.185Z,22.28
2018-12-12T09:48:50.179Z,22.19
2018-12-12T09:49:50.160Z,22.26
2018-12-12T09:50:50.149Z,22.44
2018-12-12T09:51:50.416Z,22.71
2018-12-12T09:52:50.131Z,22.91
2018-12-12T09:53:50.117Z,23.04
2018-12-12T09:54:50.119Z,23.16
2018-12-12T09:55:50.094Z,23.34
2018-12-12T09:56:50.089Z,23.66
2018-12-12T09:57:50.184Z,23.66
2018-12-12T09:58:50.068Z,23.59
2018-12-12T09:59:50.054Z,23.63
2018-12-12T10:00:50.039Z,23.76
2018-12-12T10:01:50.028Z,23.79
2018-12-12T10:02:50.020Z,23.54
2018-12-12T10:03:50.213Z,23.33
2018-12-12T10:04:50.004Z,23.16
2018-12-12T10:05:49.991Z,23.13
2018-12-12T10:06:49.973Z,23.08
2018-12-12T10:07:49.962Z,23.02
2018-12-12T10:08:49.957Z,23.32
2018-12-12T10:09:50.143Z,23.44
2018-12-12T10:10:49.929Z,23.36
2018-12-12T10:11:49.928Z,23.21
2018-12-12T10:12:49.913Z,23.28
2018-12-12T10:13:49.902Z,23.14
2018-12-12T10:14:49.889Z,23.07
2018-12-12T10:15:49.976Z,23.23
2018-12-12T10:16:49.868Z,23.14
2018-12-12T10:17:49.856Z,23.16
2018-12-12T10:18:49.845Z,23.28
2018-12-12T10:19:49.834Z,23.52
2018-12-12T10:20:49.824Z,23.76
2018-12-12T10:21:50.059Z,24.00
2018-12-12T10:22:49.804Z,23.94
2018-12-12T10:23:49.790Z,24.07
2018-12-12T10:24:49.783Z,24.36
2018-12-12T10:25:49.771Z,24.58
2018-12-12T10:26:49.760Z,24.75
2018-12-12T10:27:49.923Z,24.84
2018-12-12T10:28:49.736Z,24.79
2018-12-12T10:29:49.725Z,24.88
2018-12-12T10:30:49.716Z,24.96
2018-12-12T10:31:49.700Z,25.03
2018-12-12T10:32:49.687Z,24.81
2018-12-12T10:33:49.789Z,24.63
2018-12-12T10:34:49.668Z,24.81
2018-12-12T10:35:49.657Z,24.97
2018-12-12T10:36:49.649Z,25.01
2018-12-12T10:37:49.637Z,25.11
2018-12-12T10:38:49.625Z,25.16
2018-12-12T10:39:49.728Z,25.21
2018-12-12T10:40:49.608Z,25.30
2018-12-12T10:41:49.594Z,25.39
2018-12-12T10:42:49.582Z,25.39
2018-12-12T10:43:49.574Z,25.43
2018-12-12T10:44:49.563Z,25.46
2018-12-12T10:45:49.732Z,25.56
2018-12-12T10:46:49.545Z,25.52
2018-12-12T10:47:49.527Z,25.66
2018-12-12T10:48:49.515Z,25.70
2018-12-12T10:49:49.527Z,25.85
2018-12-12T10:50:49.503Z,25.89
2018-12-12T10:51:49.581Z,25.93
2018-12-12T10:52:49.471Z,25.98
2018-12-12T10:53:49.456Z,26.06
2018-12-12T10:54:49.449Z,26.19
2018-12-12T10:55:49.447Z,26.22
2018-12-12T10:56:49.431Z,26.41
2018-12-12T10:57:49.513Z,26.51
2018-12-12T10:58:49.410Z,26.52
2018-12-12T10:59:49.395Z,26.60
2018-12-12T11:00:49.393Z,26.56
2018-12-12T11:01:49.380Z,26.63
2018-12-12T11:02:49.359Z,26.60
2018-12-12T11:03:49.520Z,26.73
2018-12-12T11:04:49.342Z,26.76
2018-12-12T11:05:49.330Z,26.81
2018-12-12T11:06:49.329Z,26.85
2018-12-12T11:07:49.330Z,26.79
2018-12-12T11:08:49.293Z,26.82
2018-12-12T11:09:49.892Z,27.03
2018-12-12T11:10:49.293Z,27.26
2018-12-12T11:11:49.265Z,27.26
2018-12-12T11:12:49.266Z,27.52
2018-12-12T11:13:49.238Z,27.72
2018-12-12T11:14:49.313Z,27.94
2018-12-12T11:15:49.323Z,27.98
2018-12-12T11:16:49.218Z,28.01
2018-12-12T11:17:49.210Z,28.04
2018-12-12T11:18:49.190Z,28.09
2018-12-12T11:19:49.186Z,28.10
2018-12-12T11:20:49.170Z,28.19
2018-12-12T11:21:49.277Z,28.19
2018-12-12T11:22:49.147Z,28.40
2018-12-12T11:23:49.140Z,28.65
2018-12-12T11:24:49.128Z,28.87
2018-12-12T11:25:49.111Z,28.97
2018-12-12T11:26:49.101Z,29.12
2018-12-12T11:27:49.426Z,29.16
2018-12-12T11:28:49.079Z,29.27
2018-12-12T11:29:49.078Z,29.39
2018-12-12T11:30:49.064Z,29.49
2018-12-12T11:31:49.055Z,29.64
2018-12-12T11:32:49.061Z,29.76
2018-12-12T11:33:50.617Z,29.96
2018-12-12T11:34:49.035Z,30.17
2018-12-12T11:35:49.032Z,30.44
2018-12-12T11:36:49.029Z,30.69
2018-12-12T11:37:48.992Z,30.91
2018-12-12T11:38:48.984Z,31.17
2018-12-12T11:39:49.104Z,31.28
2018-12-12T11:40:48.968Z,31.47
2018-12-12T11:41:48.958Z,31.69
2018-12-12T11:42:48.932Z,31.48
2018-12-12T11:43:48.921Z,31.74
2018-12-12T11:44:48.948Z,31.62
2018-12-12T11:45:49.058Z,31.59
2018-12-12T11:46:48.896Z,30.80
2018-12-12T11:47:48.877Z,30.14
2018-12-12T11:48:48.921Z,29.28
2018-12-12T11:49:48.858Z,29.98
2018-12-12T11:50:48.863Z,30.55
2018-12-12T11:51:49.090Z,30.96
2018-12-12T11:52:48.880Z,31.10
2018-12-12T11:53:48.829Z,31.02
2018-12-12T11:54:48.819Z,31.22
2018-12-12T11:55:48.796Z,31.62
2018-12-12T11:56:48.788Z,30.85
2018-12-12T11:57:48.986Z,29.94
2018-12-12T11:58:48.763Z,30.70
2018-12-12T11:59:48.765Z,30.99
2018-12-12T12:00:48.750Z,31.42
2018-12-12T12:01:48.731Z,30.54
2018-12-12T12:02:48.717Z,30.73
2018-12-12T12:03:48.849Z,31.35
2018-12-12T12:04:48.712Z,31.89
2018-12-12T12:05:48.698Z,32.12
2018-12-12T12:06:48.678Z,32.41
2018-12-12T12:07:48.663Z,32.71
2018-12-12T12:08:48.649Z,32.83
2018-12-12T12:09:48.839Z,32.95
2018-12-12T12:10:48.651Z,33.12
2018-12-12T12:11:48.619Z,33.17
2018-12-12T12:12:48.611Z,33.20
2018-12-12T12:13:48.608Z,33.28
2018-12-12T12:14:48.587Z,33.13
2018-12-12T12:15:48.811Z,33.26
2018-12-12T12:16:48.568Z,33.12
2018-12-12T12:17:48.569Z,32.19
2018-12-12T12:18:48.591Z,31.54
2018-12-12T12:19:48.546Z,31.97
2018-12-12T12:20:48.525Z,32.35
2018-12-12T12:21:48.654Z,32.46
2018-12-12T12:22:48.499Z,32.68
2018-12-12T12:23:48.508Z,32.76
2018-12-12T12:24:48.485Z,32.78
2018-12-12T12:25:48.470Z,32.90
2018-12-12T12:26:48.462Z,32.86
2018-12-12T12:27:48.623Z,32.82
2018-12-12T12:28:49.329Z,32.93
2018-12-12T12:29:48.447Z,32.93
2018-12-12T12:30:48.448Z,32.90
2018-12-12T12:31:48.405Z,32.85
2018-12-12T12:32:48.422Z,32.83
2018-12-12T12:33:48.519Z,32.78
2018-12-12T12:34:48.368Z,32.78
2018-12-12T12:35:48.364Z,32.75
2018-12-12T12:36:48.351Z,32.66
2018-12-12T12:37:48.344Z,32.64
2018-12-12T12:38:48.326Z,32.57
2018-12-12T12:39:48.470Z,32.54
2018-12-12T12:40:48.318Z,32.42
2018-12-12T12:41:48.307Z,32.35
2018-12-12T12:42:48.288Z,32.17
2018-12-12T12:43:48.280Z,31.72
2018-12-12T12:44:48.268Z,31.72
2018-12-12T12:45:48.534Z,31.51
2018-12-12T12:46:48.242Z,31.54
2018-12-12T12:47:48.885Z,31.45
2018-12-12T12:48:48.221Z,30.35
2018-12-12T12:49:48.223Z,29.49
2018-12-12T12:50:48.222Z,29.74
2018-12-12T12:51:48.322Z,29.86
2018-12-12T12:52:48.182Z,30.02